createdAt,value
2018-02-14T00:01:58.821Z,76.60
2018-02-14T00:04:26.449Z,76.80
2018-02-14T00:06:54.075Z,79.40
2018-02-14T00:09:21.724Z,78.20
2018-02-14T00:11:49.346Z,77.70
2018-02-14T00:14:17.773Z,80.60
2018-02-14T00:16:45.405Z,80.50
2018-02-14T00:19:13.020Z,80.40
2018-02-14T00:21:40.675Z,81.70
2018-02-14T00:24:09.079Z,80.10
2018-02-14T00:26:36.732Z,80.10
2018-02-14T00:29:05.113Z,78.60
2018-02-14T00:31:32.737Z,78.60
2018-02-14T00:34:00.388Z,78.60
2018-02-14T00:36:28.016Z,80.50
2018-02-14T00:38:55.673Z,80.80
2018-02-14T00:41:23.284Z,80.50
2018-02-14T00:43:50.905Z,80.90
2018-02-14T00:46:18.565Z,82.90
2018-02-14T00:48:46.178Z,84.20
2018-02-14T00:51:13.833Z,84.90
2018-02-14T00:53:41.470Z,86.20
2018-02-14T00:56:09.098Z,86.90
2018-02-14T00:58:36.736Z,86.60
2018-02-14T01:01:04.383Z,86.30
2018-02-14T01:03:32.033Z,85.80
2018-02-14T01:05:59.665Z,84.90
2018-02-14T01:08:27.292Z,83.70
2018-02-14T01:10:54.953Z,84.70
2018-02-14T01:13:22.591Z,85.10
2018-02-14T01:15:50.249Z,84.50
2018-02-14T01:18:17.865Z,84.10
2018-02-14T01:20:45.485Z,84.70
2018-02-14T01:23:13.898Z,83.30
2018-02-14T01:25:41.517Z,83.30
2018-02-14T01:28:09.169Z,83.50
2018-02-14T01:30:36.789Z,84.90
2018-02-14T01:33:04.404Z,87.20
2018-02-14T01:35:32.053Z,88.30
2018-02-14T01:38:00.436Z,88.20
2018-02-14T01:40:28.888Z,87.00
2018-02-14T01:42:56.505Z,87.00
2018-02-14T01:45:24.886Z,81.90
2018-02-14T01:47:52.533Z,81.90
2018-02-14T01:50:20.169Z,82.50
2018-02-14T01:52:47.835Z,84.00
2018-02-14T01:55:15.464Z,83.70
2018-02-14T01:57:43.085Z,83.70
2018-02-14T02:00:10.720Z,84.50
2018-02-14T02:02:38.345Z,84.60
2018-02-14T02:05:05.995Z,85.20
2018-02-14T02:07:34.393Z,85.90
2018-02-14T02:10:02.162Z,85.90
2018-02-14T02:12:29.797Z,85.90
2018-02-14T02:14:57.464Z,85.50
2018-02-14T02:17:25.113Z,85.40
2018-02-14T02:19:52.816Z,84.40
2018-02-14T02:22:20.443Z,84.20
2018-02-14T02:24:48.164Z,83.90
2018-02-14T02:27:15.777Z,84.10
2018-02-14T02:29:44.208Z,84.50
2018-02-14T02:32:11.825Z,84.50
2018-02-14T02:34:39.454Z,85.50
2018-02-14T02:37:07.118Z,85.60
2018-02-14T02:39:46.481Z,85.80
2018-02-14T02:42:14.165Z,86.50
2018-02-14T02:44:41.782Z,86.60
2018-02-14T02:47:09.416Z,85.70
2018-02-14T02:49:37.054Z,86.10
2018-02-14T02:52:04.674Z,85.20
2018-02-14T02:54:32.334Z,84.20
2018-02-14T02:56:59.963Z,84.50
2018-02-14T02:59:28.352Z,84.40
2018-02-14T03:01:56.765Z,84.30
2018-02-14T03:04:25.214Z,84.90
2018-02-14T03:06:52.925Z,85.60
2018-02-14T03:09:21.320Z,85.30
2018-02-14T03:11:48.938Z,85.20
2018-02-14T03:14:16.596Z,85.30
2018-02-14T03:16:44.216Z,85.70
2018-02-14T03:19:11.898Z,85.30
2018-02-14T03:21:39.525Z,85.10
2018-02-14T03:24:07.149Z,83.70
2018-02-14T03:26:35.561Z,83.30
2018-02-14T03:29:03.174Z,83.20
2018-02-14T03:31:30.853Z,83.50
2018-02-14T03:33:58.483Z,83.80
2018-02-14T03:36:26.120Z,83.50
2018-02-14T03:38:53.782Z,82.20
2018-02-14T03:41:21.402Z,82.80
2018-02-14T03:43:49.828Z,83.40
2018-02-14T03:46:17.449Z,83.30
2018-02-14T03:48:45.077Z,82.80
2018-02-14T03:51:12.722Z,84.70
2018-02-14T03:53:40.338Z,84.90
2018-02-14T03:56:07.998Z,83.50
2018-02-14T03:58:35.625Z,82.00
2018-02-14T04:01:04.031Z,82.10
2018-02-14T04:03:32.444Z,82.50
2018-02-14T04:06:00.064Z,82.50
2018-02-14T04:08:27.718Z,83.30
2018-02-14T04:10:55.345Z,82.10
2018-02-14T04:13:23.724Z,82.90
2018-02-14T04:15:52.142Z,83.60
2018-02-14T04:18:19.768Z,82.90
2018-02-14T04:20:47.429Z,83.00
2018-02-14T04:23:15.064Z,82.70
2018-02-14T04:25:42.696Z,82.80
2018-02-14T04:28:14.377Z,82.20
2018-02-14T04:30:41.998Z,82.30
2018-02-14T04:33:09.691Z,82.50
2018-02-14T04:35:37.313Z,82.60
2018-02-14T04:38:05.706Z,81.60
2018-02-14T04:40:33.367Z,81.60
2018-02-14T04:43:00.994Z,81.70
2018-02-14T04:45:28.668Z,81.30
2018-02-14T04:47:56.302Z,81.50
2018-02-14T04:50:24.692Z,81.50
2018-02-14T04:52:53.102Z,80.10
2018-02-14T04:55:20.726Z,80.10
2018-02-14T04:57:48.401Z,80.20
2018-02-14T05:00:16.021Z,80.30
2018-02-14T05:02:43.739Z,78.70
2018-02-14T05:05:11.395Z,78.70
2018-02-14T05:07:39.031Z,79.60
2018-02-14T05:10:07.449Z,79.70
2018-02-14T05:12:35.078Z,79.70
2018-02-14T05:15:02.713Z,79.60
2018-02-14T05:17:30.373Z,80.30
2018-02-14T05:19:58.002Z,79.50
2018-02-14T05:22:25.665Z,80.30
2018-02-14T05:24:53.349Z,80.70
2018-02-14T05:27:20.994Z,79.40
2018-02-14T05:29:48.648Z,79.20
2018-02-14T05:32:16.268Z,79.40
2018-02-14T05:34:43.936Z,78.90
2018-02-14T05:37:11.556Z,77.70
2018-02-14T05:39:39.180Z,77.50
2018-02-14T05:42:06.816Z,77.70
2018-02-14T05:44:34.438Z,76.80
2018-02-14T05:47:02.081Z,77.00
2018-02-14T05:49:29.704Z,77.10
2018-02-14T05:51:58.120Z,76.00
2018-02-14T05:54:25.744Z,75.90
2018-02-14T05:56:53.388Z,76.40
2018-02-14T05:59:21.027Z,76.70
2018-02-14T06:01:49.408Z,78.10
2018-02-14T06:04:17.864Z,77.10
2018-02-14T06:06:45.486Z,77.10
2018-02-14T06:09:13.879Z,77.20
2018-02-14T06:11:42.297Z,77.50
2018-02-14T06:14:10.004Z,77.50
2018-02-14T06:16:37.660Z,78.00
2018-02-14T06:19:05.273Z,77.80
2018-02-14T06:21:32.884Z,77.70
2018-02-14T06:24:00.532Z,77.70
2018-02-14T06:26:28.158Z,77.70
2018-02-14T06:28:55.794Z,77.30
2018-02-14T06:31:23.437Z,78.20
2018-02-14T06:33:51.070Z,79.20
2018-02-14T06:36:18.725Z,78.20
2018-02-14T06:38:46.340Z,77.60
2018-02-14T06:41:13.984Z,77.60
2018-02-14T06:43:41.689Z,76.40
2018-02-14T06:46:09.406Z,75.10
2018-02-14T06:48:37.829Z,74.50
2018-02-14T06:51:05.445Z,74.30
2018-02-14T06:53:33.069Z,74.90
2018-02-14T06:56:00.715Z,73.20
2018-02-14T06:58:28.360Z,72.50
2018-02-14T07:00:56.025Z,72.60
2018-02-14T07:03:23.650Z,72.40
2018-02-14T07:05:52.038Z,71.90
2018-02-14T07:08:20.453Z,71.40
2018-02-14T07:10:48.066Z,72.10
2018-02-14T07:13:15.720Z,71.00
2018-02-14T07:15:43.337Z,71.70
2018-02-14T07:18:10.952Z,73.00
2018-02-14T07:20:38.588Z,72.40
2018-02-14T07:23:06.205Z,71.50
2018-02-14T07:25:33.905Z,71.30
2018-02-14T07:28:01.518Z,71.60
2018-02-14T07:30:29.137Z,70.70
2018-02-14T07:32:56.780Z,70.40
2018-02-14T07:35:25.260Z,71.20
2018-02-14T07:37:53.688Z,71.40
2018-02-14T07:40:21.422Z,71.30
2018-02-14T07:42:49.084Z,71.90
2018-02-14T07:45:16.728Z,71.70
2018-02-14T07:47:44.350Z,72.30
2018-02-14T07:50:11.996Z,72.90
2018-02-14T07:52:39.625Z,72.70
2018-02-14T07:55:07.244Z,71.00
2018-02-14T07:57:34.909Z,69.90
2018-02-14T08:00:02.539Z,66.90
2018-02-14T08:02:30.202Z,67.30
2018-02-14T08:04:58.596Z,67.50
2018-02-14T08:07:26.975Z,66.80
2018-02-14T08:09:54.623Z,66.80
2018-02-14T08:12:22.252Z,66.20
2018-02-14T08:14:49.914Z,65.90
2018-02-14T08:17:18.312Z,67.00
2018-02-14T08:19:45.932Z,67.00
2018-02-14T08:22:13.577Z,67.70
2018-02-14T08:24:41.197Z,67.30
2018-02-14T08:27:10.661Z,63.40
2018-02-14T08:29:39.053Z,61.10
2018-02-14T08:32:06.682Z,61.10
2018-02-14T08:34:34.333Z,61.30
2018-02-14T08:37:01.962Z,59.70
2018-02-14T08:39:30.432Z,46.30
2018-02-14T08:41:58.029Z,46.30
2018-02-14T08:44:26.411Z,35.00
2018-02-14T08:46:54.050Z,35.00
2018-02-14T08:49:21.674Z,31.80
2018-02-14T08:51:49.333Z,30.80
2018-02-14T08:54:16.957Z,27.40
2018-02-14T08:56:44.573Z,25.20
2018-02-14T08:59:12.219Z,26.30
2018-02-14T09:01:39.834Z,24.50
2018-02-14T09:04:08.258Z,22.50
2018-02-14T09:06:35.882Z,22.40
2018-02-14T09:09:03.492Z,21.70
2018-02-14T09:11:31.185Z,22.60
2018-02-14T09:13:58.817Z,22.50
2018-02-14T09:16:27.249Z,22.40
2018-02-14T09:18:54.883Z,22.40
2018-02-14T09:21:23.261Z,23.50
2018-02-14T09:23:50.903Z,23.10
2018-02-14T09:26:18.521Z,23.50
2018-02-14T09:28:46.177Z,21.90
2018-02-14T09:31:13.800Z,21.10
2018-02-14T09:33:41.421Z,21.20
2018-02-14T09:36:09.061Z,20.20
2018-02-14T09:38:36.685Z,20.30
2018-02-14T09:41:04.337Z,19.30
2018-02-14T09:43:31.952Z,19.30
2018-02-14T09:46:00.350Z,19.30
2018-02-14T09:48:27.993Z,19.20
2018-02-14T09:50:55.612Z,18.60
2018-02-14T09:53:23.265Z,18.90
2018-02-14T09:55:51.652Z,17.80
2018-02-14T09:58:20.027Z,18.30
2018-02-14T10:00:47.669Z,18.20
2018-02-14T10:03:15.289Z,16.20
2018-02-14T10:05:43.705Z,15.60
2018-02-14T10:08:11.317Z,15.50
2018-02-14T10:10:38.938Z,16.00
2018-02-14T10:13:07.340Z,14.80
2018-02-14T10:15:34.961Z,14.80
2018-02-14T10:18:02.619Z,14.60
2018-02-14T10:20:30.267Z,13.90
2018-02-14T10:22:57.885Z,14.20
2018-02-14T10:25:25.535Z,14.40
2018-02-14T10:27:53.145Z,13.30
2018-02-14T10:30:20.906Z,14.30
2018-02-14T10:32:48.524Z,13.80
2018-02-14T10:35:16.897Z,15.50
2018-02-14T10:37:44.542Z,15.50
2018-02-14T10:40:12.157Z,14.40
2018-02-14T10:42:40.573Z,15.70
2018-02-14T10:45:08.196Z,15.70
2018-02-14T10:47:35.809Z,18.60
2018-02-14T10:50:04.225Z,18.40
2018-02-14T10:52:31.848Z,18.40
2018-02-14T10:54:59.496Z,18.50
2018-02-14T10:57:27.111Z,19.00
2018-02-14T10:59:55.489Z,20.00
2018-02-14T11:02:23.129Z,20.00
2018-02-14T11:04:56.569Z,19.50
2018-02-14T11:07:24.209Z,19.30
2018-02-14T11:09:51.858Z,19.60
2018-02-14T11:12:19.513Z,19.00
2018-02-14T11:14:47.964Z,19.80
2018-02-14T11:17:15.588Z,19.70
2018-02-14T11:19:44.000Z,18.20
2018-02-14T11:22:11.628Z,18.20
2018-02-14T11:24:39.290Z,16.90
2018-02-14T11:27:06.908Z,17.40
2018-02-14T11:29:34.627Z,14.00
2018-02-14T11:32:02.272Z,13.80
2018-02-14T11:34:29.899Z,14.80
2018-02-14T11:36:57.652Z,14.60
2018-02-14T11:39:25.303Z,13.90
2018-02-14T11:41:52.921Z,14.60
2018-02-14T11:44:20.548Z,14.20
2018-02-14T11:46:48.158Z,14.20
2018-02-14T11:49:15.805Z,14.70
2018-02-14T11:51:43.421Z,15.40
2018-02-14T11:54:11.034Z,13.40
2018-02-14T11:56:38.677Z,13.40
2018-02-14T11:59:06.300Z,12.70
2018-02-14T12:01:33.999Z,11.50
2018-02-14T12:04:01.626Z,11.70
2018-02-14T12:06:29.232Z,11.40
2018-02-14T12:08:56.916Z,11.50
2018-02-14T12:11:24.512Z,10.50
2018-02-14T12:13:52.166Z,10.30
2018-02-14T12:16:19.781Z,10.40
2018-02-14T12:18:48.156Z,9.00
2018-02-14T12:21:15.802Z,9.00
2018-02-14T12:23:43.444Z,8.50
2018-02-14T12:26:11.845Z,11.50
2018-02-14T12:28:39.449Z,11.50
2018-02-14T12:31:07.053Z,13.70
2018-02-14T12:33:35.453Z,16.30
2018-02-14T12:36:03.825Z,16.10
2018-02-14T12:38:31.477Z,16.10
2018-02-14T12:40:59.089Z,16.30
2018-02-14T12:43:27.465Z,17.50
2018-02-14T12:45:55.093Z,17.40
2018-02-14T12:48:22.700Z,17.50
2018-02-14T12:50:50.360Z,18.20
2018-02-14T12:53:17.970Z,18.70
2018-02-14T12:55:45.577Z,18.50
2018-02-14T12:58:13.205Z,19.20
2018-02-14T13:00:40.812Z,19.70
2018-02-14T13:03:08.471Z,20.20
2018-02-14T13:05:36.848Z,18.20
2018-02-14T13:08:04.455Z,18.20
2018-02-14T13:10:32.094Z,17.50
2018-02-14T13:12:59.702Z,16.00
2018-02-14T13:15:27.361Z,14.10
2018-02-14T13:17:55.810Z,11.80
2018-02-14T13:20:23.457Z,11.80
2018-02-14T13:22:51.092Z,12.20
2018-02-14T13:25:19.473Z,14.20
2018-02-14T13:27:47.126Z,14.20
2018-02-14T13:30:14.732Z,14.10
2018-02-14T13:32:42.340Z,14.20
2018-02-14T13:35:09.997Z,14.00
2018-02-14T13:37:38.377Z,10.90
2018-02-14T13:40:06.003Z,10.90
2018-02-14T13:42:33.653Z,10.40
2018-02-14T13:45:01.265Z,10.40
2018-02-14T13:47:28.889Z,9.00
2018-02-14T13:49:56.541Z,9.20
2018-02-14T13:52:24.137Z,9.40
2018-02-14T13:54:52.504Z,8.40
2018-02-14T13:57:20.132Z,8.40
2018-02-14T13:59:47.741Z,8.20
2018-02-14T14:02:15.385Z,8.70
2018-02-14T14:04:43.028Z,9.90
2018-02-14T14:07:11.388Z,9.40
2018-02-14T14:09:39.029Z,9.40
2018-02-14T14:12:06.637Z,10.30
2018-02-14T14:14:34.285Z,10.60
2018-02-14T14:17:01.892Z,9.40
2018-02-14T14:19:30.272Z,9.30
2018-02-14T14:21:57.908Z,9.30
2018-02-14T14:24:25.512Z,8.30
2018-02-14T14:26:53.157Z,8.00
2018-02-14T14:29:20.847Z,7.40
2018-02-14T14:31:48.453Z,7.80
2018-02-14T14:34:16.862Z,10.30
2018-02-14T14:36:44.485Z,10.20
2018-02-14T14:39:12.133Z,12.10
2018-02-14T14:41:39.749Z,12.20
2018-02-14T14:44:07.357Z,12.40
2018-02-14T14:46:35.753Z,13.10
2018-02-14T14:49:04.121Z,12.90
2018-02-14T14:51:31.762Z,12.90
2018-02-14T14:53:59.434Z,13.50
2018-02-14T14:56:27.053Z,14.40
2018-02-14T14:58:55.473Z,14.40
2018-02-14T15:01:23.092Z,14.40
2018-02-14T15:03:50.745Z,14.40
2018-02-14T15:06:18.366Z,15.30
2018-02-14T15:08:46.824Z,16.10
2018-02-14T15:11:14.466Z,16.10
2018-02-14T15:13:42.078Z,16.60
2018-02-14T15:16:09.734Z,16.30
2018-02-14T15:18:37.345Z,16.40
2018-02-14T15:21:06.388Z,16.40
2018-02-14T15:23:34.025Z,16.50
2018-02-14T15:26:02.295Z,16.90
2018-02-14T15:28:29.948Z,17.20
2018-02-14T15:30:57.569Z,18.00
2018-02-14T15:33:26.023Z,18.20
2018-02-14T15:35:53.664Z,18.20
2018-02-14T15:38:21.289Z,18.70
2018-02-14T15:40:49.347Z,18.80
2018-02-14T15:43:16.997Z,19.10
2018-02-14T15:45:44.616Z,19.20
2018-02-14T15:48:13.406Z,19.40
2018-02-14T15:50:41.021Z,20.00
2018-02-14T15:53:13.512Z,21.20
2018-02-14T15:55:41.497Z,21.20
2018-02-14T15:58:10.381Z,22.30
2018-02-14T16:00:38.424Z,22.30
2018-02-14T16:03:06.066Z,22.50
2018-02-14T16:05:34.468Z,24.30
2018-02-14T16:08:02.081Z,24.30
2018-02-14T16:10:29.725Z,24.30
2018-02-14T16:12:58.209Z,24.80
2018-02-14T16:15:25.867Z,24.10
2018-02-14T16:17:54.282Z,26.80
2018-02-14T16:20:22.562Z,26.80
2018-02-14T16:22:50.223Z,26.40
2018-02-14T16:25:18.611Z,26.60
2018-02-14T16:27:48.017Z,28.60
2018-02-14T16:30:15.628Z,28.50
2018-02-14T16:32:43.282Z,29.10
2018-02-14T16:35:12.546Z,30.20
2018-02-14T16:37:40.168Z,30.20
2018-02-14T16:40:08.584Z,31.30
2018-02-14T16:42:36.205Z,31.30
2018-02-14T16:45:03.867Z,32.60
2018-02-14T16:47:31.486Z,32.20
2018-02-14T16:50:07.297Z,33.80
2018-02-14T16:52:34.951Z,33.90
2018-02-14T16:55:03.981Z,33.00
2018-02-14T16:57:31.703Z,33.00
2018-02-14T16:59:59.343Z,33.40
2018-02-14T17:02:27.008Z,34.60
2018-02-14T17:04:56.257Z,34.10
2018-02-14T17:07:27.385Z,34.40
2018-02-14T17:09:55.148Z,35.00
2018-02-14T17:12:22.820Z,35.00
2018-02-14T17:14:50.487Z,35.10
2018-02-14T17:17:24.727Z,34.40
2018-02-14T17:19:52.379Z,35.90
2018-02-14T17:22:19.992Z,37.20
2018-02-14T17:24:47.638Z,38.00
2018-02-14T17:27:16.521Z,37.90
2018-02-14T17:29:44.170Z,38.20
2018-02-14T17:32:11.834Z,39.40
2018-02-14T17:34:39.461Z,39.70
2018-02-14T17:37:07.074Z,38.80
2018-02-14T17:39:34.713Z,39.10
2018-02-14T17:42:02.341Z,39.10
2018-02-14T17:44:29.988Z,40.80
2018-02-14T17:46:57.615Z,42.70
2018-02-14T17:49:26.288Z,42.30
2018-02-14T17:51:53.938Z,42.20
2018-02-14T17:54:21.625Z,42.70
2018-02-14T17:56:49.290Z,42.30
2018-02-14T17:59:16.923Z,42.30
2018-02-14T18:01:44.626Z,43.30
2018-02-14T18:04:12.268Z,43.70
2018-02-14T18:06:39.882Z,43.70
2018-02-14T18:09:07.554Z,44.40
2018-02-14T18:11:35.169Z,44.40
2018-02-14T18:14:06.520Z,46.10
2018-02-14T18:16:34.269Z,46.00
2018-02-14T18:19:02.273Z,46.00
2018-02-14T18:21:29.979Z,48.40
2018-02-14T18:23:58.420Z,47.50
2018-02-14T18:26:26.556Z,47.40
2018-02-14T18:28:55.276Z,48.30
2018-02-14T18:31:22.892Z,48.20
2018-02-14T18:33:50.541Z,47.90
2018-02-14T18:36:18.173Z,48.30
2018-02-14T18:38:46.621Z,49.40
2018-02-14T18:41:14.272Z,49.40
2018-02-14T18:43:41.917Z,49.20
2018-02-14T18:46:10.367Z,49.90
2018-02-14T18:48:37.995Z,49.90
2018-02-14T18:51:05.617Z,50.30
2018-02-14T18:53:33.285Z,51.30
2018-02-14T18:56:00.905Z,52.20
2018-02-14T18:58:29.333Z,52.50
2018-02-14T19:00:56.957Z,52.50
2018-02-14T19:03:24.692Z,52.30
2018-02-14T19:05:52.945Z,52.20
2018-02-14T19:08:21.336Z,52.50
2018-02-14T19:10:49.002Z,52.40
2018-02-14T19:13:17.393Z,52.80
2018-02-14T19:15:45.781Z,52.70
2018-02-14T19:18:14.192Z,54.70
2018-02-14T19:20:42.147Z,54.50
2018-02-14T19:23:10.624Z,54.30
2018-02-14T19:25:39.228Z,52.70
2018-02-14T19:28:06.850Z,51.80
2018-02-14T19:30:34.613Z,51.60
2018-02-14T19:33:03.597Z,51.30
2018-02-14T19:35:31.244Z,52.20
2018-02-14T19:37:58.864Z,52.70
2018-02-14T19:40:28.273Z,53.20
2018-02-14T19:42:55.935Z,53.20
2018-02-14T19:45:23.560Z,53.50
2018-02-14T19:47:51.226Z,54.90
2018-02-14T19:50:18.853Z,54.50
2018-02-14T19:52:46.473Z,54.90
2018-02-14T19:55:14.113Z,55.60
2018-02-14T19:57:42.506Z,56.30
2018-02-14T20:00:10.976Z,56.70
2018-02-14T20:02:38.586Z,56.60
2018-02-14T20:05:06.493Z,57.20
2018-02-14T20:07:34.137Z,58.00
2018-02-14T20:10:02.578Z,59.10
2018-02-14T20:12:30.239Z,59.10
2018-02-14T20:14:58.028Z,58.80
2018-02-14T20:17:25.688Z,58.90
2018-02-14T20:19:53.337Z,58.90
2018-02-14T20:22:21.729Z,59.30
2018-02-14T20:24:49.385Z,59.40
2018-02-14T20:27:17.772Z,58.60
2018-02-14T20:29:45.397Z,58.50
2018-02-14T20:32:13.047Z,58.70
2018-02-14T20:34:40.674Z,59.70
2018-02-14T20:37:08.321Z,60.40
2018-02-14T20:39:36.033Z,60.30
2018-02-14T20:42:03.670Z,60.20
2018-02-14T20:44:31.330Z,60.60
2018-02-14T20:46:58.987Z,61.00
2018-02-14T20:49:27.376Z,63.80
2018-02-14T20:51:55.805Z,64.20
2018-02-14T20:54:23.429Z,64.20
2018-02-14T20:56:51.889Z,66.80
2018-02-14T20:59:19.559Z,66.80
2018-02-14T21:01:47.249Z,65.60
2018-02-14T21:04:14.962Z,65.10
2018-02-14T21:06:43.099Z,65.50
2018-02-14T21:09:10.734Z,66.30
2018-02-14T21:11:38.380Z,65.90
2018-02-14T21:14:06.537Z,66.20
2018-02-14T21:16:34.450Z,65.80
2018-02-14T21:19:02.853Z,66.10
2018-02-14T21:21:31.399Z,66.70
2018-02-14T21:23:59.588Z,66.60
2018-02-14T21:26:28.073Z,69.30
2018-02-14T21:28:56.373Z,71.20
2018-02-14T21:31:23.998Z,71.80
2018-02-14T21:33:52.658Z,72.10
2018-02-14T21:36:20.297Z,72.00
2018-02-14T21:38:47.921Z,71.50
2018-02-14T21:41:18.875Z,71.80
2018-02-14T21:43:46.686Z,71.30
2018-02-14T21:46:14.732Z,71.00
2018-02-14T21:48:42.586Z,71.90
2018-02-14T21:51:10.854Z,71.90
2018-02-14T21:53:39.098Z,71.80
2018-02-14T21:56:07.973Z,72.20
2018-02-14T21:58:35.841Z,72.10
2018-02-14T22:01:03.853Z,72.50
2018-02-14T22:03:32.082Z,73.30
2018-02-14T22:06:00.507Z,74.30
2018-02-14T22:08:28.758Z,76.50
2018-02-14T22:10:56.369Z,76.60
2018-02-14T22:13:25.199Z,76.10
2018-02-14T22:15:52.823Z,75.50
2018-02-14T22:18:21.181Z,75.90
2018-02-14T22:20:49.579Z,75.10
2018-02-14T22:23:17.965Z,75.30
2018-02-14T22:25:46.414Z,75.70
2018-02-14T22:28:14.041Z,75.60
2018-02-14T22:30:42.466Z,77.50
2018-02-14T22:33:10.118Z,77.50
2018-02-14T22:35:37.813Z,77.40
2018-02-14T22:38:05.468Z,78.40
2018-02-14T22:40:33.077Z,78.40
2018-02-14T22:43:00.733Z,78.30
2018-02-14T22:45:28.352Z,78.20
2018-02-14T22:47:55.973Z,77.30
2018-02-14T22:50:23.642Z,79.00
2018-02-14T22:52:51.284Z,80.80
2018-02-14T22:55:19.273Z,81.70
2018-02-14T22:57:47.669Z,81.50
2018-02-14T23:00:21.961Z,83.80
2018-02-14T23:02:49.585Z,83.10
2018-02-14T23:05:17.994Z,83.50
2018-02-14T23:07:45.643Z,83.50
2018-02-14T23:10:14.880Z,83.60
2018-02-14T23:12:42.546Z,83.60
2018-02-14T23:15:10.168Z,83.00
2018-02-14T23:17:37.788Z,82.80
2018-02-14T23:20:05.441Z,83.20
2018-02-14T23:22:33.833Z,82.30
2018-02-14T23:25:01.500Z,82.20
2018-02-14T23:27:29.125Z,83.30
2018-02-14T23:29:56.745Z,84.10
2018-02-14T23:32:24.498Z,83.80
2018-02-14T23:34:52.129Z,82.90
2018-02-14T23:37:19.793Z,81.90
2018-02-14T23:39:47.441Z,81.80
2018-02-14T23:42:15.075Z,82.00
2018-02-14T23:44:42.728Z,82.60
2018-02-14T23:47:10.346Z,83.50
2018-02-14T23:49:38.006Z,84.60
2018-02-14T23:52:05.636Z,84.20
2018-02-14T23:54:34.029Z,83.40
2018-02-14T23:57:02.454Z,83.40
2018-02-14T23:59:30.070Z,83.40
